»·PEaware :: N614FT P08-P19

N614FT :: P08-P19

FLIGHT INFORMATION

Flight Status: Arrived
Operator: Privately registered:
United States
More flights under this callsign
Pilot: Carlos A. (16805)
Aircraft: PIPER PA-31/31P NAVAJO CHIEFTAIN
(PA31)
More flights by this aircraft type
Origin: P08 Coolidge Mun
United States
Destination: P19 Stellar
United States
More flights between these airports :: More routes between these airports
Route:
File this flight plan on PilotEdge
Remarks: Arizona Alphabet Challenge
Altitude:
(Current/Filed)
3,500ft
Speed:
(Current/Filed)
180kts
Departed: 15-Oct-23 09:08 PM
Arrived: 15-Oct-23 09:24 PM
Distance/Time
Traveled:
54nm/0:16
Distance/Time
To Go:
Arrived

Flight Plot

Page will automatically refresh every two minutes.

Flight plan parsing failed; only flown route is shown


Map Options




Map Legend


Flown Route
Filed Route
Departure Airport
Arrival Airport
Navaid (VOR, NDB)
Fix

Horizontal Profiles

Position Reports

Time Latitude Longitude Heading Altitude Ground
Speed
15-Oct-23 20:22 32.937337 -111.422390 52 1578ft 1kts
15-Oct-23 20:23 32.937249 -111.422439 345 1578ft 0kts
15-Oct-23 20:24 32.937249 -111.422439 345 1578ft 0kts
15-Oct-23 20:25 32.937249 -111.422439 345 1578ft 0kts
15-Oct-23 20:26 32.937249 -111.422439 345 1578ft 0kts
15-Oct-23 20:27 32.937249 -111.422439 345 1578ft 0kts
15-Oct-23 20:28 32.937249 -111.422439 345 1578ft 0kts
15-Oct-23 20:29 32.937249 -111.422439 345 1578ft 0kts
15-Oct-23 20:30 32.937249 -111.422439 345 1578ft 0kts
15-Oct-23 20:31 32.937249 -111.422439 345 1578ft 0kts
15-Oct-23 20:32 32.937249 -111.422439 345 1578ft 0kts
15-Oct-23 20:33 32.937249 -111.422439 345 1578ft 0kts
15-Oct-23 20:34 32.937249 -111.422439 345 1578ft 0kts
15-Oct-23 20:35 32.937249 -111.422439 345 1578ft 0kts
15-Oct-23 20:36 32.937249 -111.422439 345 1578ft 0kts
15-Oct-23 20:37 32.937249 -111.422439 345 1578ft 0kts
15-Oct-23 20:38 32.937249 -111.422440 345 1578ft 0kts
15-Oct-23 20:39 32.937250 -111.422440 345 1578ft 0kts
15-Oct-23 20:40 32.937252 -111.422440 345 1578ft 0kts
15-Oct-23 20:41 32.937254 -111.422441 345 1578ft 0kts
15-Oct-23 20:42 32.937255 -111.422442 345 1578ft 0kts
15-Oct-23 20:43 32.937257 -111.422442 345 1578ft 0kts
15-Oct-23 20:44 32.937259 -111.422443 345 1578ft 0kts
15-Oct-23 20:45 32.937260 -111.422443 345 1578ft 0kts
15-Oct-23 20:46 32.937262 -111.422444 345 1578ft 0kts
15-Oct-23 20:47 32.937264 -111.422444 345 1578ft 0kts
15-Oct-23 20:48 32.937265 -111.422445 345 1578ft 0kts
15-Oct-23 20:49 32.937278 -111.422448 345 1578ft 0kts
15-Oct-23 20:50 32.937333 -111.422599 270 1578ft 0kts
15-Oct-23 20:51 32.937346 -111.422636 316 1578ft 0kts
15-Oct-23 20:52 32.937354 -111.422645 316 1578ft 0kts
15-Oct-23 20:53 32.937362 -111.422654 316 1578ft 0kts
15-Oct-23 20:54 32.937368 -111.422660 316 1578ft 0kts
15-Oct-23 20:55 32.937369 -111.422662 316 1578ft 0kts
15-Oct-23 20:56 32.937370 -111.422663 316 1578ft 0kts
15-Oct-23 20:57 32.937371 -111.422664 316 1578ft 0kts
15-Oct-23 20:58 32.937356 -111.422876 269 1578ft 7kts
15-Oct-23 20:59 32.934098 -111.422864 180 1578ft 19kts
15-Oct-23 21:00 32.930533 -111.422814 185 1578ft 6kts
15-Oct-23 21:01 32.928665 -111.420841 191 1578ft 12kts
15-Oct-23 21:02 32.928735 -111.423400 312 1578ft 14kts
15-Oct-23 21:03 32.928790 -111.424271 260 1578ft 0kts
15-Oct-23 21:04 32.928790 -111.424271 260 1578ft 0kts
15-Oct-23 21:05 32.928790 -111.424272 260 1578ft 0kts
15-Oct-23 21:06 32.928786 -111.424867 280 1578ft 6kts
15-Oct-23 21:07 32.939602 -111.424856 1 1898ft 88kts
15-Oct-23 21:08 32.964148 -111.436000 313 2981ft 103kts
15-Oct-23 21:09 32.984492 -111.464073 312 3880ft 119kts
15-Oct-23 21:10 33.006231 -111.496467 306 4278ft 125kts
15-Oct-23 21:11 33.026852 -111.529606 320 4670ft 144kts
15-Oct-23 21:12 33.059779 -111.566947 311 4446ft 164kts
15-Oct-23 21:13 33.087875 -111.605791 310 4455ft 145kts
15-Oct-23 21:14 33.111105 -111.643267 307 4511ft 144kts
15-Oct-23 21:15 33.134772 -111.682419 311 4467ft 149kts
15-Oct-23 21:16 33.160076 -111.719628 311 4366ft 141kts
15-Oct-23 21:17 33.184971 -111.754454 316 4493ft 133kts
15-Oct-23 21:18 33.214009 -111.785983 324 4419ft 144kts
15-Oct-23 21:19 33.229905 -111.827733 284 4476ft 138kts
15-Oct-23 21:20 33.236018 -111.875655 274 4190ft 149kts
15-Oct-23 21:21 33.249910 -111.916588 341 3434ft 138kts
15-Oct-23 21:23 33.286715 -111.915620 358 1539ft 105kts
15-Oct-23 21:24 33.302170 -111.915784 0 1181ft 16kts
15-Oct-23 21:25 33.303283 -111.916056 275 1181ft 0kts
15-Oct-23 21:26 33.303283 -111.916058 275 1181ft 0kts
15-Oct-23 21:27 33.303284 -111.916061 275 1181ft 0kts
15-Oct-23 21:28 33.303284 -111.916063 275 1181ft 0kts
15-Oct-23 21:29 33.303130 -111.916230 185 1181ft 4kts
15-Oct-23 21:30 33.300471 -111.916211 180 1181ft 6kts
15-Oct-23 21:31 33.300018 -111.916534 277 1181ft 0kts
15-Oct-23 21:32 32.126033 -110.944000 310 2647ft 0kts

Navigation Log

Ident Type
Flight plan parsing failed, navigation log unavailable